Ten'yo — JBBC — position and weather

sailwx.info

Track history (hours):
 
Tides and Currents Weather Stations Pressure Air Temp Water Temp Dewpoint Dewpoint Depression Visibility Wind Speed Wind Dir Waves Ship Positions

Oceanographic research ship Ten'yo (Japan)

Detailed information on ship capabilities available from University of Delaware's Ocean Information Center.

Last reported at 2019-Sep-03 05:22 UTC. Time now 2019-Sep-20 09:38 UTC.
Position N 35°38' E 139°47'.
Warning: this ship's position is 17 days out of date.

Length 56 m; draft 3 m.

Type: Other ship. MMSI: 431100350.

Date/timePositionNaut miles runAvg speedWind from/ knotsBaromVisibWave heightAir tempDewpointWater temp
2019-Sep-03 05:22N 35°38' E 139°47'0 0.7
2019-Sep-03 05:00N 35°38' E 139°47'3 5.3
2019-Sep-03 04:22N 35°35' E 139°48'3 9.2
2019-Sep-03 04:00N 35°33' E 139°51'4 7.9
2019-Sep-03 03:29N 35°29' E 139°52'4 8.2
2019-Sep-03 02:58N 35°26' E 139°48'4 9.1
2019-Sep-03 02:30N 35°22' E 139°45'4 8.4
2019-Sep-03 02:00N 35°18' E 139°45'4 8.6
2019-Sep-03 01:29N 35°14' E 139°47'4 9.4
2019-Sep-03 01:00N 35°10' E 139°47'  
Track history (hours):
 
Tides and Currents Weather Stations Pressure Air Temp Water Temp Dewpoint Dewpoint Depression Visibility Wind Speed Wind Dir Waves Ship Positions

Oceanographic research ship Ten'yo (Japan)

Detailed information on ship capabilities available from University of Delaware's Ocean Information Center.

Last reported at 2019-Sep-03 05:22 UTC. Time now 2019-Sep-20 09:38 UTC.
Position N 35°38' E 139°47'.
Warning: this ship's position is 17 days out of date.

Length 56 m; draft 3 m.

Type: Other ship. MMSI: 431100350.

Date/timePositionNaut miles runAvg speedWind from/ knotsBaromVisibWave heightAir tempDewpointWater temp
2019-Sep-03 05:22N 35°38' E 139°47'0 0.7
2019-Sep-03 05:00N 35°38' E 139°47'3 5.3
2019-Sep-03 04:22N 35°35' E 139°48'3 9.2
2019-Sep-03 04:00N 35°33' E 139°51'4 7.9
2019-Sep-03 03:29N 35°29' E 139°52'4 8.2
2019-Sep-03 02:58N 35°26' E 139°48'4 9.1
2019-Sep-03 02:30N 35°22' E 139°45'4 8.4
2019-Sep-03 02:00N 35°18' E 139°45'4 8.6
2019-Sep-03 01:29N 35°14' E 139°47'4 9.4
2019-Sep-03 01:00N 35°10' E 139°47'  

Dump ship's entire track history